Time;durP1;ratioP1;P1;durP2;ratioP2;P2;SDS_P1;SDS_P2;PMS_P1;PMS_P2;Temp;Humidity;BMP_temperature;BMP_pressure;BME280_temperature;BME280_humidity;BME280_pressure;Samples;Min_cycle;Max_cycle;Signal;HPM_P1;HPM_P2
2022/04/26 03:37:45;;;;;;;11.13;8.43;;;9.40;99.90;;;;;;5105285;28;20241;-71
2022/04/26 03:40:12;;;;;;;8.77;7.87;;;9.30;99.90;;;;;;5105286;28;20201;-70
2022/04/26 03:42:38;;;;;;;8.67;7.73;;;9.30;99.90;;;;;;5105261;28;20210;-70
2022/04/26 03:45:06;;;;;;;10.60;8.13;;;9.30;99.90;;;;;;5105469;28;20263;-70
2022/04/26 03:47:33;;;;;;;9.67;8.00;;;9.30;99.90;;;;;;5105870;28;20203;-71
2022/04/26 03:50:00;;;;;;;9.43;8.07;;;9.20;99.90;;;;;;5105455;28;20740;-71
2022/04/26 03:52:27;;;;;;;9.37;7.27;;;9.20;99.90;;;;;;5106006;28;20272;-70
2022/04/26 03:54:54;;;;;;;9.40;8.40;;;9.20;99.90;;;;;;5105759;28;20583;-70
2022/04/26 03:57:20;;;;;;;10.00;8.67;;;9.20;99.90;;;;;;5106142;28;20202;-70
2022/04/26 03:59:47;;;;;;;12.30;8.93;;;9.20;99.90;;;;;;5109414;28;20279;-70
2022/04/26 04:02:14;;;;;;;10.40;8.03;;;9.20;99.90;;;;;;5109094;28;20198;-71
2022/04/26 04:04:40;;;;;;;11.23;8.40;;;9.30;99.90;;;;;;5110137;27;20725;-71
2022/04/26 04:07:08;;;;;;;8.87;7.93;;;9.30;99.90;;;;;;5109863;28;20202;-70
2022/04/26 04:09:35;;;;;;;9.57;7.93;;;9.30;99.90;;;;;;5110031;28;20237;-70
2022/04/26 04:12:01;;;;;;;9.80;8.23;;;9.30;99.90;;;;;;5109972;28;21756;-70
2022/04/26 04:14:28;;;;;;;11.47;8.70;;;9.30;99.90;;;;;;5110419;28;20220;-70
2022/04/26 04:16:57;;;;;;;8.73;7.67;;;9.30;99.90;;;;;;5109937;28;20207;-70
2022/04/26 04:19:25;;;;;;;10.23;8.50;;;9.30;99.90;;;;;;5110099;28;20282;-70
2022/04/26 04:21:53;;;;;;;10.40;8.17;;;9.30;99.90;;;;;;5109923;28;20206;-71
2022/04/26 04:24:22;;;;;;;10.10;8.83;;;9.30;99.90;;;;;;5109199;28;20202;-71
2022/04/26 04:26:49;;;;;;;10.40;8.10;;;9.30;99.90;;;;;;5109744;28;20615;-71
2022/04/26 04:29:16;;;;;;;10.50;7.63;;;9.30;99.90;;;;;;5109342;28;20287;-71
2022/04/26 04:31:42;;;;;;;11.00;8.33;;;9.30;99.90;;;;;;5109427;28;20202;-70
2022/04/26 04:34:09;;;;;;;9.90;7.93;;;9.30;99.90;;;;;;5108300;28;20255;-70
2022/04/26 04:36:36;;;;;;;11.00;8.27;;;9.30;99.90;;;;;;5108960;28;20672;-68
2022/04/26 04:39:03;;;;;;;10.37;8.43;;;9.30;99.90;;;;;;5108817;28;20704;-68
2022/04/26 04:41:35;;;;;;;12.23;8.30;;;9.40;99.90;;;;;;5108469;28;20205;-68
2022/04/26 04:44:06;;;;;;;11.83;8.20;;;9.40;99.90;;;;;;5104378;28;20182;-68
2022/04/26 04:46:32;;;;;;;11.50;9.20;;;9.40;99.90;;;;;;5109918;28;20194;-68
2022/04/26 04:48:59;;;;;;;12.17;9.23;;;9.40;99.90;;;;;;5109483;28;20240;-68
2022/04/26 04:51:26;;;;;;;12.67;8.93;;;9.40;99.90;;;;;;5109859;28;20230;-68
2022/04/26 04:53:52;;;;;;;11.83;8.83;;;9.40;99.90;;;;;;5109386;28;20198;-68
2022/04/26 04:56:19;;;;;;;13.07;9.17;;;9.40;99.90;;;;;;5109269;27;20832;-68
2022/04/26 04:58:47;;;;;;;12.00;9.57;;;9.40;99.90;;;;;;5109203;27;20205;-68
2022/04/26 05:01:14;;;;;;;11.83;9.47;;;9.40;99.90;;;;;;5108693;28;20576;-68
2022/04/26 05:03:40;;;;;;;12.37;9.47;;;9.40;99.90;;;;;;5106590;28;20194;-68
2022/04/26 05:06:07;;;;;;;12.37;8.27;;;9.40;99.90;;;;;;5109216;28;20205;-68
2022/04/26 05:08:34;;;;;;;12.30;8.73;;;9.40;99.90;;;;;;5109101;28;20255;-68
2022/04/26 05:11:01;;;;;;;10.50;8.50;;;9.40;99.90;;;;;;5103799;28;20229;-68
2022/04/26 05:13:27;;;;;;;12.13;8.83;;;9.40;99.90;;;;;;5109584;28;20255;-68
2022/04/26 05:15:55;;;;;;;15.77;9.53;;;9.50;99.90;;;;;;5109390;28;20202;-68
2022/04/26 05:18:22;;;;;;;10.80;8.83;;;9.50;99.90;;;;;;5108772;28;20263;-68
2022/04/26 05:20:49;;;;;;;11.97;9.27;;;9.50;99.90;;;;;;5109079;28;20210;-68
2022/04/26 05:26:00;;;;;;;9.83;8.40;;;9.60;99.90;;;;;;5108947;28;20267;-68
2022/04/26 05:28:26;;;;;;;13.90;9.10;;;9.60;99.90;;;;;;5109075;28;20198;-68
2022/04/26 05:30:53;;;;;;;14.30;9.23;;;9.60;99.90;;;;;;5103526;28;20300;-68
2022/04/26 05:33:22;;;;;;;10.83;9.03;;;9.60;99.90;;;;;;5102514;28;20308;-68
2022/04/26 05:35:49;;;;;;;14.53;9.73;;;9.70;99.90;;;;;;5108465;28;20198;-68
2022/04/26 05:38:15;;;;;;;16.13;9.07;;;9.70;99.90;;;;;;5108309;28;20245;-68
2022/04/26 05:40:43;;;;;;;14.03;9.07;;;9.70;99.90;;;;;;5108966;28;20206;-68
2022/04/26 05:43:09;;;;;;;10.87;9.03;;;9.70;99.90;;;;;;5108428;28;20264;-68
2022/04/26 05:45:36;;;;;;;16.57;9.77;;;9.70;99.90;;;;;;5108255;28;20263;-69
2022/04/26 05:48:04;;;;;;;20.80;10.40;;;9.80;99.90;;;;;;5108522;28;20259;-69
2022/04/26 05:50:32;;;;;;;11.10;9.13;;;9.80;99.90;;;;;;5108460;28;20233;-70
2022/04/26 05:52:59;;;;;;;15.27;9.07;;;9.90;99.90;;;;;;5108305;28;20202;-69
2022/04/26 05:55:25;;;;;;;13.30;8.90;;;9.90;99.90;;;;;;5108585;28;20206;-69
2022/04/26 05:57:52;;;;;;;13.27;9.43;;;10.00;99.90;;;;;;5107513;28;20206;-69
2022/04/26 06:00:19;;;;;;;9.80;8.80;;;10.00;99.90;;;;;;5107428;28;20577;-69
2022/04/26 06:02:48;;;;;;;11.20;8.47;;;10.00;99.90;;;;;;5108003;28;20201;-69
2022/04/26 06:05:15;;;;;;;13.70;8.77;;;10.10;99.90;;;;;;5108214;28;20807;-69
2022/04/26 06:07:43;;;;;;;9.30;8.00;;;10.10;99.90;;;;;;5107947;28;20664;-69
2022/04/26 06:10:11;;;;;;;10.83;7.87;;;10.00;99.90;;;;;;5107935;28;20233;-69
2022/04/26 06:12:39;;;;;;;10.83;7.43;;;9.90;99.90;;;;;;5108363;28;20207;-69
2022/04/26 06:15:07;;;;;;;12.83;7.43;;;9.90;99.90;;;;;;5107663;28;20737;-69
2022/04/26 06:17:34;;;;;;;7.53;6.67;;;10.00;99.90;;;;;;5105143;28;20209;-69
2022/04/26 06:20:00;;;;;;;8.67;7.67;;;10.10;99.90;;;;;;5107330;28;20977;-69
2022/04/26 06:22:27;;;;;;;6.93;5.77;;;10.20;99.90;;;;;;5106675;28;20225;-69
2022/04/26 06:24:55;;;;;;;6.40;5.80;;;10.20;99.90;;;;;;5107559;28;20286;-69
2022/04/26 06:27:22;;;;;;;6.03;4.43;;;10.30;99.90;;;;;;5100672;28;20210;-69
2022/04/26 06:29:49;;;;;;;12.30;5.03;;;10.40;99.90;;;;;;5106914;28;20229;-69
2022/04/26 06:32:15;;;;;;;7.77;4.37;;;10.50;99.90;;;;;;5107868;28;20202;-69
2022/04/26 06:34:42;;;;;;;8.80;4.63;;;10.50;99.90;;;;;;5108021;28;20206;-69
2022/04/26 06:37:09;;;;;;;6.03;4.10;;;10.60;99.90;;;;;;5107650;28;20251;-69
2022/04/26 06:39:35;;;;;;;6.10;4.10;;;10.70;99.90;;;;;;5106751;28;20373;-69
2022/04/26 06:42:04;;;;;;;4.50;4.10;;;10.70;99.90;;;;;;5105924;28;20729;-69
2022/04/26 06:44:31;;;;;;;4.57;4.23;;;10.70;99.90;;;;;;5107798;28;20194;-69
2022/04/26 06:46:58;;;;;;;4.23;3.93;;;10.80;99.90;;;;;;5107078;28;20656;-69
2022/04/26 06:49:25;;;;;;;6.13;3.33;;;10.80;99.90;;;;;;5107294;28;20247;-69
2022/04/26 06:51:51;;;;;;;3.63;3.37;;;10.90;99.90;;;;;;5107234;28;20213;-69
2022/04/26 06:54:18;;;;;;;3.70;3.47;;;10.90;99.90;;;;;;5107210;28;20194;-69
2022/04/26 06:56:46;;;;;;;4.90;3.77;;;10.90;99.90;;;;;;5107305;28;20600;-69
2022/04/26 06:59:14;;;;;;;4.27;3.87;;;11.00;99.90;;;;;;5107039;28;20209;-69
2022/04/26 07:01:40;;;;;;;3.77;3.37;;;11.00;99.90;;;;;;5107231;28;20198;-69
2022/04/26 07:04:07;;;;;;;6.50;2.57;;;11.00;99.90;;;;;;5107148;28;20202;-69
2022/04/26 07:06:35;;;;;;;2.80;2.60;;;11.00;99.90;;;;;;5107009;28;20220;-69
2022/04/26 07:09:03;;;;;;;3.40;2.50;;;11.00;99.90;;;;;;5106996;28;20202;-69
2022/04/26 07:11:30;;;;;;;2.67;2.00;;;11.10;99.90;;;;;;5106973;28;20588;-69
2022/04/26 07:13:58;;;;;;;2.30;2.10;;;11.10;99.90;;;;;;5106832;28;20748;-69
2022/04/26 07:16:26;;;;;;;2.97;2.13;;;11.10;99.90;;;;;;5107229;28;20228;-69
2022/04/26 07:18:53;;;;;;;2.23;1.97;;;11.10;99.90;;;;;;5106435;28;20673;-69
2022/04/26 07:21:19;;;;;;;2.87;1.90;;;11.20;99.90;;;;;;5106927;28;20206;-69
2022/04/26 07:23:46;;;;;;;1.90;1.80;;;11.20;99.70;;;;;;5106058;28;20226;-69
2022/04/26 07:26:13;;;;;;;2.10;2.00;;;11.20;99.80;;;;;;5106986;28;20206;-69
2022/04/26 07:28:40;;;;;;;1.87;1.77;;;11.30;99.90;;;;;;5107115;28;20247;-69
2022/04/26 07:31:08;;;;;;;1.87;1.77;;;11.30;99.90;;;;;;5106441;28;20230;-69
2022/04/26 07:36:22;;;;;;;1.93;1.77;;;11.40;99.70;;;;;;5109089;28;20328;-69
2022/04/26 07:38:49;;;;;;;2.00;1.90;;;11.40;99.10;;;;;;5110495;28;20234;-71
2022/04/26 07:41:15;;;;;;;2.30;2.10;;;11.50;98.60;;;;;;5110934;28;20280;-70
2022/04/26 07:43:42;;;;;;;1.93;1.83;;;11.50;98.60;;;;;;5111157;28;20202;-70
2022/04/26 07:46:09;;;;;;;2.50;2.03;;;11.60;99.10;;;;;;5111377;28;20210;-70
2022/04/26 07:48:39;;;;;;;2.70;2.50;;;11.60;99.70;;;;;;5110876;28;20202;-70
2022/04/26 07:51:05;;;;;;;2.73;2.20;;;11.70;99.40;;;;;;5110803;28;20244;-69
2022/04/26 07:53:32;;;;;;;4.37;3.97;;;11.80;99.30;;;;;;5110407;28;20206;-69
2022/04/26 07:55:59;;;;;;;2.70;2.50;;;11.80;98.10;;;;;;5110623;28;20885;-69
2022/04/26 07:58:25;;;;;;;2.47;2.27;;;11.80;98.20;;;;;;5110456;28;20206;-69
2022/04/26 08:00:52;;;;;;;3.07;2.27;;;11.90;98.30;;;;;;5110118;28;20198;-70
2022/04/26 08:03:20;;;;;;;4.37;2.17;;;11.90;98.10;;;;;;5110108;28;20202;-69
2022/04/26 08:05:49;;;;;;;3.23;1.90;;;11.90;98.00;;;;;;5109500;28;20205;-69
2022/04/26 08:08:16;;;;;;;2.37;2.20;;;12.00;98.00;;;;;;5109994;28;20697;-69
2022/04/26 08:10:44;;;;;;;1.90;1.80;;;12.00;97.20;;;;;;5107755;28;20218;-69
2022/04/26 08:13:11;;;;;;;2.50;1.70;;;12.10;97.70;;;;;;5110310;28;20258;-69
2022/04/26 08:15:39;;;;;;;2.33;2.13;;;12.00;98.00;;;;;;5110135;28;20194;-70
2022/04/26 08:18:06;;;;;;;2.73;2.17;;;12.20;98.50;;;;;;5109424;28;20198;-69
2022/04/26 08:20:33;;;;;;;1.90;1.80;;;12.20;98.30;;;;;;5109122;28;20293;-69
2022/04/26 08:23:02;;;;;;;3.87;2.20;;;12.30;97.90;;;;;;5109648;28;20267;-69
2022/04/26 08:28:12;;;;;;;2.00;1.90;;;12.40;98.20;;;;;;5108682;28;20240;-69
2022/04/26 08:30:39;;;;;;;1.73;1.63;;;12.50;98.00;;;;;;5109963;28;20234;-69
2022/04/26 08:33:06;;;;;;;3.63;2.00;;;12.50;97.90;;;;;;5109797;28;20209;-69
2022/04/26 08:35:32;;;;;;;2.53;1.60;;;12.60;97.70;;;;;;5109672;28;20209;-69
2022/04/26 08:37:59;;;;;;;4.60;2.10;;;12.60;97.60;;;;;;5109024;28;20226;-69
2022/04/26 08:40:27;;;;;;;5.57;2.40;;;12.60;97.70;;;;;;5109762;28;20183;-70
2022/04/26 08:42:54;;;;;;;2.13;2.03;;;12.70;97.30;;;;;;5106976;28;20206;-69
2022/04/26 08:45:22;;;;;;;5.27;2.50;;;12.80;97.20;;;;;;5108850;28;20737;-69
2022/04/26 08:53:19;;;;;;;3.53;2.47;;;12.90;97.10;;;;;;5105679;28;20259;-70
2022/04/26 08:55:49;;;;;;;4.03;2.30;;;12.90;97.40;;;;;;5109440;28;20608;-70
2022/04/26 08:58:18;;;;;;;2.47;2.37;;;13.00;97.50;;;;;;5109219;28;20202;-69
2022/04/26 09:01:08;;;;;;;2.63;2.43;;;13.10;97.50;;;;;;5108775;28;20190;-69
2022/04/26 09:03:37;;;;;;;2.77;2.43;;;13.10;97.40;;;;;;5108066;28;20191;-69
2022/04/26 09:06:09;;;;;;;3.17;2.60;;;13.20;97.50;;;;;;5108899;28;20194;-71
2022/04/26 09:08:37;;;;;;;2.67;2.47;;;13.20;97.30;;;;;;5109073;28;20277;-70
2022/04/26 09:11:21;;;;;;;2.50;2.30;;;13.40;97.10;;;;;;5107189;28;20222;-69
2022/04/26 09:13:48;;;;;;;3.40;2.37;;;13.50;97.20;;;;;;5104068;28;20597;-69
2022/04/26 09:16:19;;;;;;;17.93;4.60;;;13.50;96.90;;;;;;5108640;28;20202;-70
2022/04/26 09:18:58;;;;;;;18.83;4.00;;;13.60;96.60;;;;;;5109278;27;20225;-68
2022/04/26 09:21:27;;;;;;;4.33;2.80;;;13.70;97.00;;;;;;5108981;28;20202;-69
2022/04/26 09:23:57;;;;;;;3.43;3.00;;;13.80;96.80;;;;;;5108961;28;20202;-69
2022/04/26 09:26:32;;;;;;;2.70;2.47;;;13.80;96.60;;;;;;5109085;28;20202;-69
2022/04/26 09:28:58;;;;;;;2.77;2.47;;;14.00;96.80;;;;;;5108772;27;20200;-69
2022/04/26 09:31:26;;;;;;;2.80;2.60;;;14.20;96.20;;;;;;5108396;28;20222;-68
2022/04/26 09:33:56;;;;;;;3.73;2.70;;;14.30;96.40;;;;;;5108625;28;20198;-69
2022/04/26 09:36:25;;;;;;;2.67;2.50;;;14.30;95.80;;;;;;5108980;28;20709;-69
2022/04/26 09:38:55;;;;;;;4.13;2.73;;;14.20;95.80;;;;;;5108014;28;20230;-69
2022/04/26 09:41:22;;;;;;;3.17;2.70;;;14.30;95.60;;;;;;5109094;28;20210;-69
2022/04/26 09:43:58;;;;;;;3.53;2.80;;;14.30;95.80;;;;;;5108994;28;20213;-69
2022/04/26 09:46:28;;;;;;;2.77;2.57;;;14.40;95.70;;;;;;5108616;28;20205;-69
2022/04/26 09:48:54;;;;;;;2.80;2.33;;;14.40;95.80;;;;;;5108575;28;20202;-69
2022/04/26 09:51:21;;;;;;;3.10;2.80;;;14.50;95.00;;;;;;5108831;28;20222;-69
2022/04/26 09:53:48;;;;;;;3.43;3.07;;;14.60;94.80;;;;;;5108522;28;20701;-69
2022/04/26 09:56:15;;;;;;;2.73;2.57;;;14.70;94.70;;;;;;5107653;28;20271;-69
2022/04/26 09:58:44;;;;;;;7.53;2.80;;;14.80;94.60;;;;;;5108284;28;20202;-69
2022/04/26 10:01:14;;;;;;;5.13;2.77;;;15.00;94.70;;;;;;5107534;28;20660;-69
2022/04/26 10:03:44;;;;;;;4.00;2.07;;;15.10;94.00;;;;;;5107757;28;20198;-70
2022/04/26 10:06:16;;;;;;;2.70;2.47;;;15.20;93.80;;;;;;5108161;28;20202;-69
2022/04/26 10:08:43;;;;;;;11.40;3.07;;;15.30;93.10;;;;;;5109061;28;20194;-69
2022/04/26 10:11:10;;;;;;;5.73;2.50;;;15.30;93.50;;;;;;5109065;28;20237;-69
2022/04/26 10:13:43;;;;;;;4.83;2.67;;;15.50;93.30;;;;;;5108112;28;20244;-69
2022/04/26 10:16:15;;;;;;;2.63;2.43;;;15.50;93.20;;;;;;5108605;28;20198;-69
2022/04/26 10:18:44;;;;;;;3.73;2.17;;;15.50;92.50;;;;;;5109064;28;20239;-69
2022/04/26 10:21:12;;;;;;;2.67;2.10;;;15.60;93.10;;;;;;5108408;27;20233;-69
2022/04/26 10:24:12;;;;;;;2.30;2.10;;;15.60;93.50;;;;;;5108040;28;20244;-70
2022/04/26 10:26:39;;;;;;;2.50;2.30;;;15.60;93.00;;;;;;5108488;28;20247;-69
2022/04/26 10:29:14;;;;;;;2.90;2.30;;;15.60;92.20;;;;;;5108843;28;20206;-70
2022/04/26 10:31:44;;;;;;;2.67;2.00;;;15.60;92.80;;;;;;5108191;28;20217;-70
2022/04/26 10:34:26;;;;;;;2.00;1.90;;;15.70;91.70;;;;;;5108314;28;20263;-70
2022/04/26 10:36:54;;;;;;;2.00;1.90;;;15.90;91.40;;;;;;5108316;28;20198;-69
2022/04/26 10:39:30;;;;;;;1.80;1.70;;;16.00;91.20;;;;;;5107871;28;20230;-70
2022/04/26 10:41:58;;;;;;;3.73;1.80;;;16.00;91.50;;;;;;5108152;28;20216;-69
2022/04/26 10:44:41;;;;;;;2.27;1.90;;;16.10;90.90;;;;;;5108414;28;20624;-69
2022/04/26 10:47:36;;;;;;;2.20;1.80;;;16.20;89.50;;;;;;5108121;28;20275;-70
2022/04/26 10:50:09;;;;;;;2.97;2.10;;;16.20;88.80;;;;;;5108610;28;20289;-70
2022/04/26 10:52:40;;;;;;;3.93;2.40;;;16.30;87.60;;;;;;5108082;28;20343;-69
2022/04/26 10:55:14;;;;;;;6.43;2.07;;;16.40;88.40;;;;;;5107864;28;20217;-70
2022/04/26 10:57:43;;;;;;;1.90;1.80;;;16.40;89.20;;;;;;5108518;28;20219;-70
2022/04/26 11:00:11;;;;;;;6.33;2.00;;;16.50;90.20;;;;;;5107873;28;20202;-70
2022/04/26 11:02:40;;;;;;;8.27;2.63;;;16.80;90.20;;;;;;5107937;28;20221;-70
2022/04/26 11:05:10;;;;;;;3.63;2.13;;;16.90;89.80;;;;;;5107967;28;20282;-70
2022/04/26 11:07:38;;;;;;;5.13;2.40;;;16.90;88.00;;;;;;5110095;28;20289;-69
2022/04/26 11:10:06;;;;;;;2.43;2.20;;;17.00;88.50;;;;;;5111781;28;20213;-69
2022/04/26 11:12:35;;;;;;;4.03;2.00;;;17.10;90.10;;;;;;5111937;28;20252;-70
2022/04/26 11:15:03;;;;;;;2.37;1.97;;;17.20;88.10;;;;;;5112373;28;20217;-70
2022/04/26 11:17:30;;;;;;;2.07;1.83;;;17.20;87.00;;;;;;5112381;28;20732;-70
2022/04/26 11:19:59;;;;;;;2.40;2.30;;;17.20;85.80;;;;;;5111757;28;20198;-70
2022/04/26 11:22:27;;;;;;;6.60;2.50;;;17.30;85.80;;;;;;5111622;28;20801;-70
2022/04/26 11:28:00;;;;;;;3.17;2.40;;;17.50;84.70;;;;;;5111950;28;20197;-70
2022/04/26 11:30:29;;;;;;;2.47;2.27;;;17.40;83.80;;;;;;5112306;28;20201;-69
2022/04/26 11:32:57;;;;;;;1.93;1.83;;;17.40;82.70;;;;;;5111723;28;20261;-69
2022/04/26 11:35:25;;;;;;;2.60;1.90;;;17.70;84.80;;;;;;5112054;28;20255;-70
2022/04/26 11:37:54;;;;;;;3.97;2.40;;;17.90;84.60;;;;;;5111330;28;20244;-70
2022/04/26 11:40:25;;;;;;;3.33;1.97;;;18.00;83.20;;;;;;5091399;28;20187;-70
2022/04/26 11:42:53;;;;;;;2.00;1.90;;;18.10;83.90;;;;;;5088163;28;20218;-70
2022/04/26 11:45:21;;;;;;;2.60;2.40;;;18.30;84.70;;;;;;5090023;28;20214;-70
2022/04/26 11:47:49;;;;;;;1.90;1.80;;;18.30;81.20;;;;;;5089928;28;20744;-70
2022/04/26 11:50:18;;;;;;;3.17;2.20;;;18.40;82.00;;;;;;5090486;28;20206;-70
2022/04/26 11:52:47;;;;;;;2.10;2.00;;;18.50;79.60;;;;;;5089697;28;20226;-70
2022/04/26 11:55:22;;;;;;;4.27;2.40;;;18.60;82.00;;;;;;5088222;28;20195;-70
2022/04/26 11:57:49;;;;;;;2.00;1.90;;;18.70;79.70;;;;;;5089948;28;20957;-70
2022/04/26 12:00:18;;;;;;;2.10;1.90;;;18.90;82.60;;;;;;5090075;28;20210;-70
2022/04/26 12:02:47;;;;;;;4.17;2.10;;;19.10;80.50;;;;;;5089934;28;20236;-70
2022/04/26 12:05:15;;;;;;;1.90;1.80;;;19.30;78.10;;;;;;5088181;28;20256;-70
2022/04/26 12:07:42;;;;;;;2.40;2.07;;;19.30;77.50;;;;;;5089950;28;20206;-70
2022/04/26 12:10:32;;;;;;;2.63;2.20;;;19.30;76.00;;;;;;5089734;28;20202;-70
2022/04/26 12:13:01;;;;;;;3.30;2.40;;;19.20;74.80;;;;;;5089908;28;20222;-70
2022/04/26 12:15:30;;;;;;;2.70;2.40;;;19.20;75.80;;;;;;5087755;28;20207;-70
2022/04/26 12:18:07;;;;;;;2.23;2.00;;;19.10;74.40;;;;;;5089381;28;20210;-70
2022/04/26 12:20:35;;;;;;;2.60;1.80;;;19.20;74.50;;;;;;5090566;28;20620;-70
2022/04/26 12:23:02;;;;;;;2.07;1.93;;;19.40;75.00;;;;;;5089931;28;20230;-70
2022/04/26 12:25:30;;;;;;;1.73;1.50;;;19.60;77.00;;;;;;5089169;28;20203;-69
2022/04/26 12:28:05;;;;;;;3.07;1.90;;;19.80;74.60;;;;;;5082863;28;20261;-69
2022/04/26 12:30:33;;;;;;;2.10;1.90;;;19.90;74.60;;;;;;5088263;28;20229;-68
2022/04/26 12:33:00;;;;;;;2.13;1.97;;;20.00;72.60;;;;;;5087704;28;20241;-69
2022/04/26 12:35:27;;;;;;;2.00;1.90;;;20.00;71.60;;;;;;5087335;28;20648;-69
2022/04/26 12:38:07;;;;;;;2.03;1.70;;;20.00;71.70;;;;;;5087688;28;20254;-69
2022/04/26 12:40:36;;;;;;;2.40;1.80;;;20.10;73.70;;;;;;5088714;28;20206;-69
2022/04/26 12:43:03;;;;;;;1.93;1.70;;;20.20;71.80;;;;;;5088137;28;20264;-68
2022/04/26 12:45:30;;;;;;;2.70;2.50;;;20.30;71.50;;;;;;5087435;28;20260;-69
2022/04/26 12:50:52;;;;;;;2.30;2.20;;;20.60;69.60;;;;;;5087236;28;20194;-69
2022/04/26 12:53:24;;;;;;;3.10;2.50;;;20.60;70.10;;;;;;5086431;28;20799;-69
2022/04/26 12:55:53;;;;;;;2.67;2.47;;;20.60;70.90;;;;;;5075426;28;20260;-69
2022/04/26 12:58:35;;;;;;;3.53;2.67;;;20.70;69.50;;;;;;5086644;28;20199;-69
2022/04/26 13:01:05;;;;;;;26.27;4.30;;;20.70;70.90;;;;;;5085456;28;20567;-69
2022/04/26 13:03:32;;;;;;;2.33;2.23;;;20.70;70.60;;;;;;5084310;28;20211;-69
2022/04/26 13:06:10;;;;;;;2.40;2.20;;;20.70;70.00;;;;;;5086943;28;20198;-69
2022/04/26 13:08:39;;;;;;;2.03;1.93;;;20.50;67.90;;;;;;5085361;28;20283;-69
2022/04/26 13:11:10;;;;;;;2.10;2.00;;;20.50;68.00;;;;;;5086100;28;20673;-69
2022/04/26 13:13:40;;;;;;;2.50;2.30;;;20.20;66.00;;;;;;5085999;28;20234;-69
2022/04/26 13:16:07;;;;;;;2.33;2.10;;;20.20;69.00;;;;;;5086267;28;20892;-69
2022/04/26 13:18:34;;;;;;;2.10;1.90;;;20.10;68.90;;;;;;5086296;28;20198;-69
2022/04/26 13:21:02;;;;;;;2.17;2.00;;;20.20;68.30;;;;;;5086328;28;20225;-69
2022/04/26 13:23:30;;;;;;;1.60;1.50;;;20.40;67.00;;;;;;5086577;28;20760;-69
2022/04/26 13:25:58;;;;;;;2.23;1.90;;;20.70;68.70;;;;;;5086880;28;20229;-69
2022/04/26 13:28:26;;;;;;;2.33;2.13;;;20.90;65.60;;;;;;5087985;28;20283;-70
2022/04/26 13:30:53;;;;;;;3.27;2.10;;;21.10;67.40;;;;;;5086957;28;20297;-70
2022/04/26 13:33:20;;;;;;;2.07;1.90;;;21.20;66.80;;;;;;5087107;28;20230;-72
2022/04/26 13:35:47;;;;;;;2.28;2.13;;;21.50;66.60;;;;;;5086912;28;20256;-71
2022/04/26 13:38:16;;;;;;;4.40;2.30;;;21.60;66.70;;;;;;5086333;28;20277;-72
2022/04/26 13:40:43;;;;;;;2.60;2.40;;;21.70;68.30;;;;;;5086355;28;20203;-71
2022/04/26 13:43:10;;;;;;;2.28;2.17;;;21.90;68.60;;;;;;5085886;28;20207;-72
2022/04/26 13:45:39;;;;;;;3.97;2.47;;;21.90;67.70;;;;;;5085446;28;20198;-72
2022/04/26 13:48:10;;;;;;;2.15;2.05;;;22.00;67.80;;;;;;5085406;28;20225;-72
2022/04/26 13:50:38;;;;;;;2.75;2.55;;;22.00;66.90;;;;;;5085607;28;20276;-70
2022/04/26 13:53:05;;;;;;;2.83;2.50;;;22.20;65.10;;;;;;5084619;28;20700;-69
2022/04/26 13:55:31;;;;;;;9.43;2.80;;;22.20;66.70;;;;;;5084993;28;20669;-72
2022/04/26 13:57:58;;;;;;;2.70;2.50;;;22.10;65.70;;;;;;5084984;28;20210;-70
2022/04/26 14:00:25;;;;;;;3.72;2.70;;;22.10;64.80;;;;;;5085459;28;20199;-69
2022/04/26 14:02:53;;;;;;;2.60;2.40;;;22.10;64.60;;;;;;5086109;28;20260;-70
2022/04/26 14:05:23;;;;;;;2.22;2.13;;;22.10;65.20;;;;;;5086354;28;20202;-69
2022/04/26 14:07:50;;;;;;;4.07;2.47;;;22.10;63.90;;;;;;5085710;28;20199;-72
2022/04/26 14:10:17;;;;;;;3.88;2.25;;;22.20;65.30;;;;;;5085445;28;20207;-70
2022/04/26 14:12:44;;;;;;;3.15;2.38;;;22.30;64.90;;;;;;5085025;28;20256;-70
2022/04/26 14:23:30;;;;;;;2.78;2.22;;;22.00;64.30;;;;;;5084573;28;20205;-69
2022/04/26 14:25:56;;;;;;;2.65;2.10;;;21.90;63.00;;;;;;5084818;28;20657;-70
2022/04/26 14:28:23;;;;;;;2.97;2.25;;;21.90;63.10;;;;;;5084593;28;21115;-72
2022/04/26 14:30:50;;;;;;;6.45;2.28;;;21.90;64.20;;;;;;5085000;28;20209;-73
2022/04/26 14:33:19;;;;;;;3.45;1.92;;;21.90;62.90;;;;;;5085065;28;20230;-70
2022/04/26 14:35:45;;;;;;;49.75;5.78;;;22.00;63.30;;;;;;5085564;28;20210;-71
2022/04/26 14:38:12;;;;;;;4.63;2.00;;;22.20;64.00;;;;;;5084849;28;20775;-70
2022/04/26 14:40:39;;;;;;;3.05;2.30;;;22.20;63.20;;;;;;5085863;28;20199;-70
2022/04/26 14:43:07;;;;;;;14.45;3.25;;;22.00;62.90;;;;;;5084939;28;20207;-70
2022/04/26 14:45:42;;;;;;;2.30;2.05;;;21.60;62.80;;;;;;5084451;28;20712;-70
2022/04/26 14:48:10;;;;;;;12.35;2.80;;;21.20;64.00;;;;;;5085643;28;20202;-71
2022/04/26 14:50:39;;;;;;;2.50;2.00;;;21.00;64.00;;;;;;5085691;28;20318;-70
2022/04/26 14:53:06;;;;;;;3.03;1.73;;;20.60;63.40;;;;;;5084672;28;20234;-71
2022/04/26 14:55:33;;;;;;;1.77;1.67;;;20.50;65.10;;;;;;5085548;28;20234;-70
2022/04/26 14:57:59;;;;;;;1.83;1.70;;;20.30;65.90;;;;;;5084748;28;20215;-71
2022/04/26 15:00:26;;;;;;;12.00;2.63;;;20.20;65.80;;;;;;5084791;28;20581;-70
2022/04/26 15:02:53;;;;;;;1.73;1.60;;;20.10;66.40;;;;;;5085208;28;20211;-70
2022/04/26 15:05:20;;;;;;;36.83;4.73;;;20.00;66.70;;;;;;5085243;28;20202;-70
2022/04/26 15:10:32;;;;;;;3.07;1.83;;;19.80;66.70;;;;;;5085108;28;20206;-70
2022/04/26 15:18:27;;;;;;;1.70;1.60;;;19.60;67.00;;;;;;5085461;28;20190;-70
2022/04/26 15:20:54;;;;;;;1.80;1.70;;;19.50;67.50;;;;;;5085703;28;20561;-70
2022/04/26 15:23:23;;;;;;;2.47;1.90;;;19.40;68.00;;;;;;5085693;28;20236;-70
2022/04/26 15:25:52;;;;;;;6.03;1.93;;;19.40;68.10;;;;;;5085180;28;20210;-70
2022/04/26 15:28:20;;;;;;;2.13;1.93;;;19.30;66.60;;;;;;5084532;28;20206;-71
2022/04/26 15:30:48;;;;;;;4.63;1.77;;;19.30;67.20;;;;;;5084898;28;20211;-71
2022/04/26 15:33:15;;;;;;;4.23;1.90;;;19.20;67.40;;;;;;5084912;28;20222;-71
2022/04/26 15:35:42;;;;;;;1.93;1.70;;;19.20;67.20;;;;;;5084761;28;20199;-70
2022/04/26 15:38:10;;;;;;;7.53;1.90;;;19.10;67.00;;;;;;5084436;28;20287;-71
2022/04/26 15:40:38;;;;;;;3.07;1.43;;;19.10;67.60;;;;;;5085025;28;20209;-69
2022/04/26 15:43:06;;;;;;;1.50;1.40;;;19.00;67.90;;;;;;5068297;28;20592;-69
2022/04/26 15:45:33;;;;;;;6.87;2.17;;;19.00;68.40;;;;;;5064908;28;20288;-69
2022/04/26 15:48:00;;;;;;;5.70;2.23;;;19.00;69.50;;;;;;5084169;28;20260;-69
2022/04/26 15:50:27;;;;;;;25.60;3.20;;;19.00;70.10;;;;;;5077159;28;20225;-69
2022/04/26 15:52:54;;;;;;;1.67;1.57;;;19.00;70.90;;;;;;5085857;28;20235;-70
2022/04/26 15:55:22;;;;;;;4.10;1.90;;;18.90;70.60;;;;;;5086574;28;20199;-69
2022/04/26 15:57:51;;;;;;;1.63;1.57;;;18.90;70.60;;;;;;5080695;28;20210;-69
2022/04/26 16:00:20;;;;;;;4.37;1.87;;;18.90;70.50;;;;;;5088032;28;20207;-69
2022/04/26 16:02:47;;;;;;;1.97;1.67;;;18.90;71.10;;;;;;5087031;28;20232;-69
2022/04/26 16:05:14;;;;;;;3.60;2.10;;;18.80;71.60;;;;;;5086812;28;20248;-69
2022/04/26 16:07:40;;;;;;;1.90;1.80;;;18.80;71.70;;;;;;5086613;28;20233;-69
2022/04/26 16:21:09;;;;;;;1.50;1.47;;;18.80;73.60;;;;;;5086206;28;20304;-69
2022/04/26 16:23:36;;;;;;;2.67;1.80;;;19.00;74.50;;;;;;5086794;28;20252;-69
2022/04/26 16:26:07;;;;;;;3.77;2.03;;;19.10;73.60;;;;;;5086346;28;20207;-69
2022/04/26 16:28:37;;;;;;;4.63;2.53;;;19.20;72.90;;;;;;5087008;28;20203;-69
2022/04/26 16:31:07;;;;;;;3.73;1.90;;;19.20;72.40;;;;;;5082545;28;20210;-69
2022/04/26 16:33:34;;;;;;;5.37;2.10;;;19.10;72.80;;;;;;5075951;28;20780;-69
2022/04/26 16:36:00;;;;;;;6.20;2.13;;;19.10;72.90;;;;;;5088678;28;20210;-69
2022/04/26 16:38:27;;;;;;;2.83;1.80;;;19.00;72.50;;;;;;5088392;28;20337;-69
2022/04/26 16:40:55;;;;;;;8.03;2.20;;;19.00;73.00;;;;;;5087870;28;20203;-69
2022/04/26 16:43:21;;;;;;;2.20;1.80;;;19.10;73.10;;;;;;5088174;28;20222;-69
2022/04/26 16:45:50;;;;;;;1.93;1.70;;;19.30;72.90;;;;;;5088047;28;20206;-69
2022/04/26 16:48:16;;;;;;;4.63;2.07;;;19.30;72.60;;;;;;5088115;28;20283;-69
2022/04/26 16:50:43;;;;;;;1.60;1.50;;;19.40;72.60;;;;;;5088275;28;20207;-69
2022/04/26 16:53:10;;;;;;;1.97;1.80;;;19.40;71.60;;;;;;5087314;28;20237;-69
2022/04/26 16:55:37;;;;;;;1.80;1.70;;;19.30;71.90;;;;;;5087715;28;20241;-69
2022/04/26 16:58:04;;;;;;;3.70;1.60;;;19.30;72.70;;;;;;5087773;28;20732;-69
2022/04/26 17:00:31;;;;;;;4.13;1.70;;;19.30;71.60;;;;;;5085534;28;20291;-69
2022/04/26 17:02:59;;;;;;;1.73;1.63;;;19.20;71.40;;;;;;5067845;28;20219;-69
2022/04/26 17:05:27;;;;;;;11.77;2.77;;;19.10;71.20;;;;;;5067363;28;20261;-69
2022/04/26 17:07:55;;;;;;;6.53;1.93;;;19.10;71.20;;;;;;5078059;28;20201;-69
2022/04/26 17:10:22;;;;;;;12.50;2.20;;;19.10;71.20;;;;;;5088388;28;20469;-69
2022/04/26 17:12:50;;;;;;;9.57;2.17;;;19.00;71.50;;;;;;5088318;28;20464;-69
2022/04/26 17:15:17;;;;;;;1.97;1.80;;;18.90;71.70;;;;;;5088448;28;20207;-69